createdAt,value
2023-02-27T00:01:45.703Z,5.80
2023-02-27T00:04:13.665Z,6.07
2023-02-27T00:06:41.591Z,6.90
2023-02-27T00:09:09.544Z,6.20
2023-02-27T00:11:39.553Z,6.20
2023-02-27T00:14:07.675Z,5.97
2023-02-27T00:16:35.545Z,5.50
2023-02-27T00:19:04.810Z,5.93
2023-02-27T00:21:35.293Z,6.10
2023-02-27T00:24:04.564Z,6.37
2023-02-27T00:26:32.457Z,5.57
2023-02-27T00:29:01.698Z,6.40
2023-02-27T00:31:29.884Z,6.00
2023-02-27T00:33:58.013Z,6.00
2023-02-27T00:36:25.898Z,6.00
2023-02-27T00:38:53.808Z,5.90
2023-02-27T00:41:21.704Z,6.47
2023-02-27T00:43:49.618Z,6.10
2023-02-27T00:46:19.685Z,6.10
2023-02-27T00:48:47.582Z,6.17
2023-02-27T00:51:15.620Z,6.37
2023-02-27T00:53:43.568Z,5.67
2023-02-27T00:56:11.462Z,6.20
2023-02-27T00:58:39.354Z,5.73
2023-02-27T01:01:07.305Z,6.10
2023-02-27T01:03:36.593Z,6.07
2023-02-27T01:06:04.607Z,5.50
2023-02-27T01:08:32.541Z,5.80
2023-02-27T01:11:00.453Z,5.43
2023-02-27T01:13:28.562Z,5.30
2023-02-27T01:15:56.487Z,5.50
2023-02-27T01:18:24.383Z,4.97
2023-02-27T01:20:54.676Z,5.50
2023-02-27T01:23:22.732Z,5.17
2023-02-27T01:25:50.962Z,6.03
2023-02-27T01:28:18.902Z,5.70
2023-02-27T01:30:46.848Z,4.73
2023-02-27T01:33:14.863Z,5.90
2023-02-27T01:35:42.745Z,5.63
2023-02-27T01:38:12.109Z,6.00
2023-02-27T01:40:42.290Z,5.67
2023-02-27T01:43:16.529Z,5.60
2023-02-27T01:45:47.613Z,5.80
2023-02-27T01:48:19.528Z,5.53
2023-02-27T01:50:51.611Z,5.73
2023-02-27T01:53:24.772Z,5.73
2023-02-27T01:55:54.521Z,5.70
2023-02-27T01:58:23.050Z,6.40
2023-02-27T02:00:51.028Z,5.87
2023-02-27T02:03:25.892Z,5.77
2023-02-27T02:05:56.525Z,5.63
2023-02-27T02:08:29.058Z,6.10
2023-02-27T02:10:57.939Z,5.20
2023-02-27T02:13:26.638Z,4.80
2023-02-27T02:16:11.715Z,5.40
2023-02-27T02:18:50.106Z,5.43
2023-02-27T02:21:48.418Z,5.90
2023-02-27T02:24:48.944Z,5.60
2023-02-27T02:27:30.026Z,5.20
2023-02-27T02:30:47.908Z,5.70
2023-02-27T02:33:51.456Z,5.90
2023-02-27T02:37:01.107Z,5.10
2023-02-27T02:39:41.924Z,5.40
2023-02-27T02:42:17.883Z,5.90
2023-02-27T02:44:54.221Z,5.33
2023-02-27T02:47:31.433Z,5.47
2023-02-27T02:50:05.165Z,5.57
2023-02-27T02:52:44.136Z,5.00
2023-02-27T02:55:19.647Z,5.27
2023-02-27T02:57:51.313Z,4.90
2023-02-27T03:00:23.103Z,5.30
2023-02-27T03:02:55.575Z,5.10
2023-02-27T03:05:28.241Z,5.30
2023-02-27T03:08:02.127Z,5.20
2023-02-27T03:10:34.262Z,5.23
2023-02-27T03:13:07.911Z,5.47
2023-02-27T03:15:41.621Z,4.63
2023-02-27T03:18:18.558Z,5.50
2023-02-27T03:20:52.500Z,5.10
2023-02-27T03:23:26.239Z,5.20
2023-02-27T03:25:58.347Z,5.60
2023-02-27T03:28:31.238Z,4.40
2023-02-27T03:31:05.923Z,5.33
2023-02-27T03:33:39.608Z,5.10
2023-02-27T03:36:11.566Z,4.90
2023-02-27T03:38:45.052Z,5.20
2023-02-27T03:41:21.516Z,5.20
2023-02-27T03:43:57.376Z,4.90
2023-02-27T03:46:27.739Z,5.03
2023-02-27T03:48:55.812Z,5.30
2023-02-27T03:51:25.792Z,5.20
2023-02-27T03:54:01.216Z,5.43
2023-02-27T03:56:36.179Z,5.67
2023-02-27T03:59:04.534Z,5.17
2023-02-27T04:01:32.854Z,5.47
2023-02-27T04:04:05.983Z,5.37
2023-02-27T04:06:53.082Z,5.00
2023-02-27T04:09:31.582Z,4.47
2023-02-27T04:12:26.062Z,5.00
2023-02-27T04:15:05.077Z,4.47
2023-02-27T04:17:39.682Z,4.90
2023-02-27T04:20:28.991Z,4.90
2023-02-27T04:23:03.697Z,4.53
2023-02-27T04:25:53.652Z,4.87
2023-02-27T04:28:28.531Z,5.10
2023-02-27T04:31:05.582Z,5.60
2023-02-27T04:33:43.362Z,5.27
2023-02-27T04:36:16.979Z,5.23
2023-02-27T04:38:50.272Z,5.70
2023-02-27T04:41:23.017Z,5.10
2023-02-27T04:43:54.461Z,4.73
2023-02-27T04:46:25.839Z,4.57
2023-02-27T04:49:00.431Z,5.47
2023-02-27T04:51:33.646Z,4.90
2023-02-27T04:54:05.534Z,4.60
2023-02-27T04:56:36.722Z,5.40
2023-02-27T04:59:10.865Z,4.80
2023-02-27T05:01:42.201Z,5.43
2023-02-27T05:04:14.193Z,4.90
2023-02-27T05:06:45.386Z,5.37
2023-02-27T05:09:20.314Z,4.67
2023-02-27T05:11:53.233Z,5.10
2023-02-27T05:14:28.990Z,5.63
2023-02-27T05:17:04.063Z,5.50
2023-02-27T05:19:33.228Z,5.50
2023-02-27T05:22:12.205Z,5.40
2023-02-27T05:24:49.987Z,5.13
2023-02-27T05:27:23.438Z,5.63
2023-02-27T05:29:54.155Z,5.20
2023-02-27T05:32:34.672Z,5.40
2023-02-27T05:35:12.784Z,5.77
2023-02-27T05:37:46.150Z,5.40
2023-02-27T05:40:18.217Z,5.80
2023-02-27T05:42:51.114Z,5.70
2023-02-27T05:45:24.195Z,5.33
2023-02-27T05:47:56.854Z,5.30
2023-02-27T05:50:29.018Z,5.43
2023-02-27T05:53:00.798Z,5.80
2023-02-27T05:55:33.461Z,5.33
2023-02-27T05:58:09.786Z,5.80
2023-02-27T06:00:42.355Z,6.00
2023-02-27T06:03:10.872Z,5.83
2023-02-27T06:05:40.622Z,5.00
2023-02-27T06:08:08.531Z,6.17
2023-02-27T06:10:37.060Z,5.60
2023-02-27T06:13:05.088Z,6.17
2023-02-27T06:15:32.951Z,5.70
2023-02-27T06:18:02.166Z,6.20
2023-02-27T06:20:30.032Z,6.03
2023-02-27T06:22:57.908Z,6.43
2023-02-27T06:25:25.785Z,5.57
2023-02-27T06:27:54.020Z,6.60
2023-02-27T06:30:22.024Z,6.27
2023-02-27T06:32:49.927Z,6.50
2023-02-27T06:35:19.345Z,6.33
2023-02-27T06:37:47.227Z,6.20
2023-02-27T06:40:15.543Z,6.50
2023-02-27T06:42:45.029Z,6.60
2023-02-27T06:45:14.120Z,6.40
2023-02-27T06:47:42.256Z,7.00
2023-02-27T06:50:15.890Z,6.70
2023-02-27T06:52:45.154Z,6.50
2023-02-27T06:55:13.092Z,6.87
2023-02-27T06:57:40.982Z,7.17
2023-02-27T07:00:11.751Z,7.13
2023-02-27T07:02:39.698Z,6.90
2023-02-27T07:05:08.750Z,7.03
2023-02-27T07:07:38.617Z,7.20
2023-02-27T07:10:12.150Z,8.50
2023-02-27T07:12:40.429Z,8.90
2023-02-27T07:15:09.361Z,8.73
2023-02-27T07:17:37.867Z,8.93
2023-02-27T07:20:08.128Z,8.00
2023-02-27T07:22:36.246Z,10.33
2023-02-27T07:25:04.352Z,9.63
2023-02-27T07:27:34.819Z,10.50
2023-02-27T07:30:02.815Z,9.97
2023-02-27T07:32:30.926Z,9.80
2023-02-27T07:34:58.775Z,8.97
2023-02-27T07:37:28.170Z,9.47
2023-02-27T07:39:56.554Z,8.90
2023-02-27T07:42:24.511Z,7.83
2023-02-27T07:44:53.792Z,8.07
2023-02-27T07:47:21.679Z,9.43
2023-02-27T07:49:49.552Z,8.43
2023-02-27T07:52:17.457Z,8.30
2023-02-27T07:54:45.334Z,9.10
2023-02-27T07:57:13.265Z,8.73
2023-02-27T07:59:41.192Z,9.07
2023-02-27T08:02:11.229Z,9.30
2023-02-27T08:04:39.372Z,8.23
2023-02-27T08:07:08.141Z,8.30
2023-02-27T08:09:36.459Z,8.63
2023-02-27T08:12:04.618Z,8.70
2023-02-27T08:14:32.510Z,8.87
2023-02-27T08:17:01.225Z,8.60
2023-02-27T08:19:30.505Z,8.90
2023-02-27T08:21:58.396Z,9.87
2023-02-27T08:24:26.479Z,9.70
2023-02-27T08:26:54.399Z,9.80
2023-02-27T08:29:22.304Z,8.93
2023-02-27T08:31:50.527Z,9.47
2023-02-27T08:34:18.798Z,8.53
2023-02-27T08:36:48.064Z,9.40
2023-02-27T08:39:15.986Z,9.27
2023-02-27T08:41:43.878Z,8.17
2023-02-27T08:44:12.911Z,8.07
2023-02-27T08:46:40.892Z,9.03
2023-02-27T08:49:08.799Z,8.50
2023-02-27T08:51:36.691Z,8.03
2023-02-27T08:54:06.039Z,7.40
2023-02-27T08:56:34.785Z,6.67
2023-02-27T08:59:03.196Z,6.10
2023-02-27T09:01:34.363Z,5.60
2023-02-27T09:04:03.807Z,5.83
2023-02-27T09:06:32.853Z,4.77
2023-02-27T09:09:01.080Z,5.27
2023-02-27T09:11:30.771Z,5.47
2023-02-27T09:13:58.989Z,4.17
2023-02-27T09:16:27.527Z,4.40
2023-02-27T09:18:55.652Z,3.90
2023-02-27T09:21:24.665Z,3.57
2023-02-27T09:23:53.789Z,4.43
2023-02-27T09:26:26.629Z,5.47
2023-02-27T09:29:05.094Z,5.00
2023-02-27T09:31:33.863Z,12.10
2023-02-27T09:34:02.566Z,9.00
2023-02-27T09:36:30.521Z,3.50
2023-02-27T09:38:59.611Z,2.47
2023-02-27T09:41:50.749Z,6.10
2023-02-27T09:44:45.697Z,13.70
2023-02-27T09:47:19.232Z,11.20
2023-02-27T09:49:59.844Z,5.50
2023-02-27T09:52:29.118Z,5.30
2023-02-27T09:54:57.048Z,6.90
2023-02-27T09:57:35.718Z,2.90
2023-02-27T10:00:14.142Z,4.33
2023-02-27T10:02:55.395Z,3.00
2023-02-27T10:05:33.972Z,4.60
2023-02-27T10:08:09.726Z,6.90
2023-02-27T10:10:41.688Z,5.60
2023-02-27T10:13:34.680Z,4.37
2023-02-27T10:16:05.692Z,8.70
2023-02-27T10:18:38.268Z,3.13
2023-02-27T10:21:11.676Z,2.53
2023-02-27T10:23:43.944Z,2.50
2023-02-27T10:26:20.008Z,6.10
2023-02-27T10:28:48.091Z,6.93
2023-02-27T10:31:23.646Z,3.77
2023-02-27T10:33:53.119Z,4.50
2023-02-27T10:36:32.978Z,10.60
2023-02-27T10:39:07.683Z,10.93
2023-02-27T10:41:37.425Z,11.80
2023-02-27T10:44:06.211Z,7.83
2023-02-27T10:46:38.868Z,4.77
2023-02-27T10:49:16.986Z,3.10
2023-02-27T10:51:47.439Z,3.10
2023-02-27T10:54:26.430Z,2.50
2023-02-27T10:56:56.687Z,3.00
2023-02-27T10:59:27.008Z,2.83
2023-02-27T11:01:57.826Z,2.73
2023-02-27T11:04:32.308Z,3.40
2023-02-27T11:07:02.488Z,2.90
2023-02-27T11:09:33.114Z,2.70
2023-02-27T11:12:22.072Z,2.97
2023-02-27T11:14:52.687Z,2.57
2023-02-27T11:17:32.157Z,2.33
2023-02-27T11:20:02.080Z,2.10
2023-02-27T11:22:31.326Z,2.37
2023-02-27T11:25:19.784Z,2.13
2023-02-27T11:27:48.406Z,1.83
2023-02-27T11:30:26.872Z,1.70
2023-02-27T11:32:58.753Z,1.60
2023-02-27T11:35:29.817Z,2.10
2023-02-27T11:38:01.181Z,1.57
2023-02-27T11:40:32.682Z,1.60
2023-02-27T11:43:05.808Z,1.70
2023-02-27T11:46:04.401Z,1.80
2023-02-27T11:48:30.612Z,1.60
2023-02-27T11:51:21.557Z,2.03
2023-02-27T11:54:09.389Z,2.20
2023-02-27T11:56:40.553Z,1.80
2023-02-27T11:59:17.894Z,2.00
2023-02-27T12:01:52.824Z,2.00
2023-02-27T12:04:27.681Z,4.07
2023-02-27T12:07:02.336Z,9.70
2023-02-27T12:09:39.512Z,4.33
2023-02-27T12:12:16.649Z,2.70
2023-02-27T12:14:50.828Z,3.27
2023-02-27T12:17:24.111Z,3.40
2023-02-27T12:20:16.772Z,3.10
2023-02-27T12:22:47.030Z,2.80
2023-02-27T12:25:27.552Z,2.77
2023-02-27T12:28:02.135Z,2.30
2023-02-27T12:30:37.296Z,1.80
2023-02-27T12:33:14.332Z,1.67
2023-02-27T12:35:44.827Z,1.33
2023-02-27T12:38:14.763Z,1.30
2023-02-27T12:40:52.800Z,1.70
2023-02-27T12:43:28.266Z,1.17
2023-02-27T12:46:38.493Z,1.27
2023-02-27T12:49:21.403Z,2.40
2023-02-27T12:52:02.572Z,1.93
2023-02-27T12:54:47.510Z,1.60
2023-02-27T12:57:32.580Z,0.93
2023-02-27T13:00:15.963Z,1.30
2023-02-27T13:03:05.115Z,1.20
2023-02-27T13:05:42.948Z,1.10
2023-02-27T13:08:21.590Z,1.20
2023-02-27T13:10:52.476Z,1.20
2023-02-27T13:13:28.142Z,1.50
2023-02-27T13:16:00.647Z,1.20
2023-02-27T13:18:38.352Z,1.50
2023-02-27T13:21:13.478Z,1.40
2023-02-27T13:23:58.226Z,1.40
2023-02-27T13:26:31.527Z,1.30
2023-02-27T13:29:00.871Z,1.20
2023-02-27T13:31:39.291Z,1.10
2023-02-27T13:34:18.115Z,1.20
2023-02-27T13:36:49.856Z,1.07
2023-02-27T13:39:41.428Z,1.00
2023-02-27T13:42:45.853Z,1.20
2023-02-27T13:46:02.971Z,1.30
2023-02-27T13:48:49.164Z,1.37
2023-02-27T13:51:46.653Z,1.40
2023-02-27T13:54:27.901Z,1.20
2023-02-27T13:57:26.127Z,1.20
2023-02-27T14:00:01.029Z,1.30
2023-02-27T14:02:40.127Z,1.20
2023-02-27T14:05:14.387Z,1.00
2023-02-27T14:07:59.958Z,1.43
2023-02-27T14:10:29.675Z,1.20
2023-02-27T14:12:59.919Z,1.27
2023-02-27T14:15:57.185Z,1.53
2023-02-27T14:18:51.314Z,1.90
2023-02-27T14:21:58.832Z,26.70
2023-02-27T14:24:33.251Z,9.40
2023-02-27T14:27:03.088Z,3.97
2023-02-27T14:29:35.029Z,5.30
2023-02-27T14:32:06.826Z,2.10
2023-02-27T14:34:39.141Z,1.77
2023-02-27T14:37:14.820Z,1.90
2023-02-27T14:39:42.719Z,1.60
2023-02-27T14:42:30.369Z,1.23
2023-02-27T14:44:59.994Z,1.07
2023-02-27T14:47:32.804Z,1.37
2023-02-27T14:50:02.142Z,1.50
2023-02-27T14:52:32.816Z,1.20
2023-02-27T14:55:14.750Z,1.20
2023-02-27T14:57:55.095Z,1.33
2023-02-27T15:00:39.313Z,1.83
2023-02-27T15:03:23.651Z,1.20
2023-02-27T15:05:53.479Z,1.07
2023-02-27T15:08:23.841Z,1.10
2023-02-27T15:10:52.795Z,1.17
2023-02-27T15:13:28.600Z,1.60
2023-02-27T15:16:31.988Z,1.60
2023-02-27T15:19:03.238Z,2.13
2023-02-27T15:21:35.012Z,1.70
2023-02-27T15:24:05.188Z,1.97
2023-02-27T15:26:37.288Z,1.93
2023-02-27T15:29:07.588Z,2.30
2023-02-27T15:31:37.432Z,2.20
2023-02-27T15:34:05.518Z,1.87
2023-02-27T15:36:35.927Z,2.27
2023-02-27T15:39:06.854Z,2.30
2023-02-27T15:41:35.503Z,3.13
2023-02-27T15:44:04.408Z,2.40
2023-02-27T15:46:33.331Z,2.20
2023-02-27T15:49:02.990Z,1.80
2023-02-27T15:51:31.470Z,1.87
2023-02-27T15:54:01.539Z,2.20
2023-02-27T15:56:33.514Z,2.40
2023-02-27T15:59:02.323Z,2.00
2023-02-27T16:01:34.775Z,2.30
2023-02-27T16:04:06.776Z,2.70
2023-02-27T16:06:36.999Z,2.87
2023-02-27T16:09:08.446Z,2.83
2023-02-27T16:11:38.225Z,2.70
2023-02-27T16:14:08.466Z,3.13
2023-02-27T16:16:38.829Z,3.50
2023-02-27T16:19:26.205Z,3.33
2023-02-27T16:22:04.999Z,4.00
2023-02-27T16:24:33.721Z,4.50
2023-02-27T16:27:02.414Z,4.20
2023-02-27T16:29:35.668Z,4.13
2023-02-27T16:32:05.574Z,4.40
2023-02-27T16:34:45.567Z,3.80
2023-02-27T16:37:20.869Z,4.07
2023-02-27T16:39:52.192Z,3.57
2023-02-27T16:42:20.215Z,3.70
2023-02-27T16:44:48.145Z,3.73
2023-02-27T16:47:16.078Z,3.03
2023-02-27T16:49:46.397Z,3.63
2023-02-27T16:52:14.298Z,4.13
2023-02-27T16:54:42.281Z,3.43
2023-02-27T16:57:10.720Z,3.43
2023-02-27T16:59:40.426Z,3.80
2023-02-27T17:02:12.600Z,3.63
2023-02-27T17:04:43.919Z,3.97
2023-02-27T17:07:16.627Z,3.60
2023-02-27T17:09:44.977Z,3.37
2023-02-27T17:12:13.261Z,3.47
2023-02-27T17:14:41.212Z,3.27
2023-02-27T17:17:10.879Z,3.40
2023-02-27T17:19:39.251Z,3.60
2023-02-27T17:22:07.685Z,3.50
2023-02-27T17:24:38.460Z,3.37
2023-02-27T17:27:06.418Z,3.50
2023-02-27T17:29:34.477Z,3.20
2023-02-27T17:32:02.363Z,3.10
2023-02-27T17:34:30.312Z,3.63
2023-02-27T17:36:58.191Z,3.97
2023-02-27T17:39:26.054Z,3.27
2023-02-27T17:41:55.290Z,3.40
2023-02-27T17:44:23.244Z,3.30
2023-02-27T17:46:51.158Z,3.37
2023-02-27T17:49:19.059Z,2.63
2023-02-27T17:51:46.972Z,3.13
2023-02-27T17:54:15.018Z,2.40
2023-02-27T17:56:43.432Z,3.27
2023-02-27T17:59:12.839Z,2.80
2023-02-27T18:01:40.756Z,3.03
2023-02-27T18:04:11.250Z,2.60
2023-02-27T18:06:39.478Z,2.30
2023-02-27T18:09:07.386Z,2.83
2023-02-27T18:11:37.314Z,2.90
2023-02-27T18:14:05.788Z,2.40
2023-02-27T18:16:35.390Z,2.70
2023-02-27T18:19:03.472Z,3.00
2023-02-27T18:21:32.023Z,2.90
2023-02-27T18:24:00.020Z,2.50
2023-02-27T18:26:31.276Z,2.80
2023-02-27T18:29:00.347Z,2.57
2023-02-27T18:31:30.409Z,2.73
2023-02-27T18:33:59.990Z,2.53
2023-02-27T18:36:28.680Z,2.97
2023-02-27T18:38:57.050Z,2.90
2023-02-27T18:41:25.231Z,3.10
2023-02-27T18:43:53.227Z,2.80
2023-02-27T18:46:21.463Z,3.53
2023-02-27T18:48:49.581Z,5.07
2023-02-27T18:51:19.325Z,5.07
2023-02-27T18:53:49.013Z,7.47
2023-02-27T18:56:19.132Z,5.63
2023-02-27T18:58:47.708Z,5.60
2023-02-27T19:01:21.428Z,3.93
2023-02-27T19:03:50.015Z,5.00
2023-02-27T19:06:19.291Z,4.57
2023-02-27T19:08:47.622Z,4.33
2023-02-27T19:11:23.529Z,5.17
2023-02-27T19:13:53.096Z,3.73
2023-02-27T19:16:21.238Z,4.53
2023-02-27T19:18:49.184Z,3.77
2023-02-27T19:21:18.155Z,3.80
2023-02-27T19:23:47.393Z,3.90
2023-02-27T19:26:15.273Z,4.10
2023-02-27T19:28:43.154Z,3.97
2023-02-27T19:31:12.698Z,4.37
2023-02-27T19:33:41.088Z,3.70
2023-02-27T19:36:11.020Z,3.47
2023-02-27T19:38:39.344Z,3.90
2023-02-27T19:41:10.672Z,2.80
2023-02-27T19:43:40.038Z,3.90
2023-02-27T19:46:09.952Z,2.90
2023-02-27T19:48:38.335Z,3.03
2023-02-27T19:51:08.431Z,2.83
2023-02-27T19:53:37.861Z,3.17
2023-02-27T19:56:10.422Z,4.10
2023-02-27T19:58:38.607Z,4.00
2023-02-27T20:01:07.769Z,3.67
2023-02-27T20:03:36.261Z,3.97
2023-02-27T20:06:06.195Z,4.07
2023-02-27T20:08:34.751Z,4.97
2023-02-27T20:11:04.938Z,5.00
2023-02-27T20:13:34.169Z,6.30
2023-02-27T20:16:04.207Z,5.90
2023-02-27T20:18:33.194Z,5.70
2023-02-27T20:21:06.692Z,5.13
2023-02-27T20:23:37.008Z,4.40
2023-02-27T20:26:14.824Z,4.27
2023-02-27T20:28:44.798Z,3.43
2023-02-27T20:31:14.109Z,3.80
2023-02-27T20:33:42.132Z,3.73
2023-02-27T20:36:11.949Z,4.10
2023-02-27T20:38:40.744Z,3.70
2023-02-27T20:41:09.672Z,3.90
2023-02-27T20:43:38.757Z,4.50
2023-02-27T20:46:11.529Z,4.10
2023-02-27T20:48:40.061Z,4.43
2023-02-27T20:51:09.214Z,3.50
2023-02-27T20:53:37.782Z,3.40
2023-02-27T20:56:07.139Z,3.00
2023-02-27T20:58:35.607Z,3.23
2023-02-27T21:01:05.010Z,3.13
2023-02-27T21:03:38.589Z,2.87
2023-02-27T21:06:08.543Z,2.40
2023-02-27T21:08:37.187Z,2.67
2023-02-27T21:11:09.375Z,3.03
2023-02-27T21:13:38.084Z,2.50
2023-02-27T21:16:07.755Z,2.53
2023-02-27T21:18:37.994Z,2.30
2023-02-27T21:21:08.303Z,2.83
2023-02-27T21:23:41.021Z,3.03
2023-02-27T21:26:09.248Z,2.77
2023-02-27T21:28:42.113Z,3.07
2023-02-27T21:31:10.133Z,2.60
2023-02-27T21:33:39.370Z,3.10
2023-02-27T21:36:08.287Z,3.00
2023-02-27T21:38:36.162Z,3.27
2023-02-27T21:41:06.887Z,3.13
2023-02-27T21:43:34.971Z,3.53
2023-02-27T21:46:06.438Z,3.40
2023-02-27T21:48:34.359Z,3.70
2023-02-27T21:51:04.638Z,3.50
2023-02-27T21:53:32.683Z,3.70
2023-02-27T21:56:04.882Z,3.87
2023-02-27T21:58:33.403Z,4.07
2023-02-27T22:01:01.677Z,3.60
2023-02-27T22:03:34.172Z,3.80
2023-02-27T22:06:05.475Z,3.30
2023-02-27T22:08:33.382Z,3.37
2023-02-27T22:11:01.617Z,3.10
2023-02-27T22:13:30.889Z,3.53
2023-02-27T22:16:03.479Z,3.30
2023-02-27T22:18:31.430Z,2.93
2023-02-27T22:20:59.530Z,2.90
2023-02-27T22:23:29.179Z,3.30
2023-02-27T22:26:01.507Z,2.70
2023-02-27T22:28:30.415Z,2.30
2023-02-27T22:31:11.210Z,2.50
2023-02-27T22:33:39.989Z,2.73
2023-02-27T22:36:09.202Z,2.73
2023-02-27T22:38:38.599Z,2.60
2023-02-27T22:41:08.464Z,2.70
2023-02-27T22:43:38.277Z,2.50
2023-02-27T22:46:06.968Z,3.40
2023-02-27T22:48:35.323Z,2.73
2023-02-27T22:51:06.012Z,3.13
2023-02-27T22:53:38.165Z,2.30
2023-02-27T22:56:09.766Z,2.60
2023-02-27T22:58:38.991Z,2.47
2023-02-27T23:01:10.829Z,2.97
2023-02-27T23:03:39.623Z,2.20
2023-02-27T23:06:08.609Z,2.50
2023-02-27T23:08:36.761Z,2.70
2023-02-27T23:11:05.048Z,2.03
2023-02-27T23:13:34.360Z,2.40
2023-02-27T23:16:03.489Z,2.40
2023-02-27T23:18:31.448Z,2.00
2023-02-27T23:21:04.360Z,2.10
2023-02-27T23:23:32.359Z,2.20
2023-02-27T23:26:01.820Z,2.00
2023-02-27T23:28:30.078Z,2.47
2023-02-27T23:31:00.275Z,2.33
2023-02-27T23:33:28.378Z,2.30
2023-02-27T23:35:57.453Z,2.10
2023-02-27T23:38:25.934Z,2.10
2023-02-27T23:40:54.262Z,2.07
2023-02-27T23:43:22.518Z,2.30
2023-02-27T23:45:50.564Z,2.20
2023-02-27T23:48:21.845Z,2.30
2023-02-27T23:50:50.399Z,1.80
2023-02-27T23:53:18.927Z,2.40
2023-02-27T23:55:46.840Z,2.23
2023-02-27T23:58:15.137Z,1.87
